Home > Products > Valid Products > TAF

000
FTUS43 KIWX 040520
TAFFWA
TAF
KFWA 040520Z 0406/0506 VRB03KT P6SM FEW040
      TEMPO 0408/0412 4SM BR
     FM041400 30005KT P6SM FEW040
     FM050100 VRB02KT P6SM SKC=



000
FTUS43 KIWX 032332
TAFFWA
TAF
KFWA 032332Z 0400/0424 05006KT P6SM SCT130 BKN250
     FM040300 VRB03KT P6SM SCT250
      TEMPO 0408/0412 4SM BR
     FM041300 31005KT P6SM SKC=



000
FTUS43 KIWX 031741
TAFFWA
TAF
KFWA 031741Z 0318/0418 08008KT P6SM SCT045 OVC160
     FM040500 VRB03KT P6SM SCT250
     FM040900 VRB03KT 4SM BR SKC
     FM041300 31005KT P6SM SKC=



000
FTUS43 KIWX 031120
TAFFWA
TAF
KFWA 031120Z 0312/0412 08008KT P6SM SCT040 BKN250
     FM040500 VRB03KT P6SM SCT250=



000
FTUS43 KIWX 031120
TAFFWA
TAF
KFWA 031120Z 0312/0412 08008KT P6SM SCT040 BKN250
     FM040500 VRB03KT P6SM SCT250=



000
FTUS43 KIWX 030520
TAFFWA
TAF
KFWA 030520Z 0306/0406 08004KT P6SM SCT040 BKN250 WS009/09026KT
     FM031400 06009KT P6SM BKN035
     FM031900 04006KT P6SM SCT045=



000
FTUS43 KIWX 022336
TAFFWA
TAF
KFWA 022336Z 0300/0324 07010KT P6SM FEW050 BKN250
     FM030400 05005KT P6SM SCT250 WS008/09028KT
     FM031400 07006KT P6SM SCT030
     FM031900 06008KT P6SM SCT045=



000
FTUS43 KIWX 021724
TAFFWA
TAF
KFWA 021724Z 0218/0318 06010KT P6SM BKN015 BKN040
     FM021900 06010KT P6SM SCT015 BKN040
     FM022200 05008KT P6SM SCT040=



000
FTUS43 KIWX 021421 AAA
TAFFWA
TAF AMD
KFWA 021421Z 0214/0312 05010KT P6SM OVC011
     FM021600 05010KT P6SM SCT015
     FM022300 06009KT P6SM SCT250=



000
FTUS43 KIWX 021130
TAFFWA
TAF
KFWA 021130Z 0212/0312 03007KT P6SM SCT035 SCT250
     FM021400 07010KT P6SM SCT040
     FM022300 06009KT P6SM SCT250=



000
FTUS43 KIWX 020532
TAFFWA
TAF
KFWA 020532Z 0206/0306 35004KT P6SM SCT040 BKN200
     FM020900 04003KT 6SM BR SCT250
     FM021200 06006KT P6SM BKN020
     FM021400 07010KT P6SM SCT040
     FM022300 06010KT P6SM SCT250=



000
FTUS43 KIWX 012336
TAFFWA
TAF
KFWA 012336Z 0200/0224 35004KT P6SM SCT150 BKN250
     FM020900 04003KT 6SM BR SCT250
      TEMPO 0210/0212 3SM BR
     FM021200 06006KT P6SM BKN020
     FM021400 07010KT P6SM SCT040=



000
FTUS43 KIWX 011726
TAFFWA
TAF
KFWA 011726Z 0118/0218 33008KT P6SM SCT030
     FM012300 02005KT P6SM SCT250=



000
FTUS43 KIWX 011139
TAFFWA
TAF
KFWA 011139Z 0112/0212 28004KT P6SM SCT040
     FM011300 31006KT P6SM SCT025
      TEMPO 0113/0115 BKN025
     FM011500 30008KT P6SM SCT040
     FM012300 34004KT P6SM SCT250=



000
FTUS43 KIWX 010817 AAA
TAFFWA
TAF AMD
KFWA 010817Z 0108/0206 28004KT 6SM BR SCT250
      TEMPO 0109/0112 4SM BR SCT006
     FM011300 31006KT P6SM BKN025
     FM011500 30008KT P6SM SCT040
     FM012300 34004KT P6SM SCT250=



    US Dept of Commerce
    National Oceanic and Atmospheric Administration
    National Weather Service
    1325 East West Highway
    Silver Spring, MD 20910
    Page Author: NWS Internet Services Team
Disclaimer
Information Quality
Credits
Glossary
Privacy Policy
Freedom of Information Act (FOIA)
About Us
Career Opportunities